Time;durP1;ratioP1;P1;durP2;ratioP2;P2;SDS_P1;SDS_P2;PMS_P1;PMS_P2;Temp;Humidity;BMP_temperature;BMP_pressure;BME280_temperature;BME280_humidity;BME280_pressure;Samples;Min_cycle;Max_cycle;Signal;HPM_P1;HPM_P2
2022/06/26 00:00:08;;;;;;;16.85;12.77;;;;;;;;;;5082414;28;20088;-77
2022/06/26 00:02:35;;;;;;;15.07;12.93;;;;;;;;;;5057333;28;20415;-78
2022/06/26 00:05:01;;;;;;;14.52;12.45;;;;;;;;;;5073869;28;20047;-78
2022/06/26 00:07:27;;;;;;;17.75;14.25;;;;;;;;;;5082442;28;20051;-78
2022/06/26 00:09:53;;;;;;;15.15;13.60;;;;;;;;;;5081828;28;20032;-78
2022/06/26 00:12:19;;;;;;;17.70;13.85;;;;;;;;;;5074248;28;20119;-77
2022/06/26 00:14:46;;;;;;;17.77;14.02;;;;;;;;;;5072977;28;20040;-77
2022/06/26 00:17:12;;;;;;;16.27;14.20;;;;;;;;;;5081672;28;20040;-77
2022/06/26 00:19:38;;;;;;;16.88;13.88;;;;;;;;;;5080683;28;20162;-77
2022/06/26 00:22:05;;;;;;;18.83;15.00;;;;;;;;;;5075363;28;20040;-77
2022/06/26 00:24:33;;;;;;;19.27;15.30;;;;;;;;;;5086353;28;20044;-77
2022/06/26 00:26:59;;;;;;;18.40;16.50;;;;;;;;;;5076278;28;20072;-77
2022/06/26 00:29:25;;;;;;;14.23;12.73;;;;;;;;;;5062486;28;20588;-77
2022/06/26 00:31:51;;;;;;;18.08;14.68;;;;;;;;;;5084252;28;20503;-77
2022/06/26 00:34:18;;;;;;;14.73;13.13;;;;;;;;;;5073898;28;20495;-77
2022/06/26 00:36:44;;;;;;;17.05;14.85;;;;;;;;;;5083395;28;20060;-76
2022/06/26 00:39:10;;;;;;;16.27;14.07;;;;;;;;;;5069353;28;20101;-77
2022/06/26 00:41:38;;;;;;;16.65;14.07;;;;;;;;;;5083308;28;20040;-77
2022/06/26 00:44:13;;;;;;;17.13;13.40;;;;;;;;;;5072932;28;20048;-77
2022/06/26 00:46:39;;;;;;;19.95;16.00;;;;;;;;;;5082971;28;20036;-77
2022/06/26 00:49:05;;;;;;;17.05;15.25;;;;;;;;;;5063633;28;20521;-77
2022/06/26 00:51:31;;;;;;;18.38;14.85;;;;;;;;;;5057859;28;20302;-77
2022/06/26 00:53:58;;;;;;;16.75;13.68;;;;;;;;;;5085362;28;20046;-77
2022/06/26 00:56:24;;;;;;;16.42;14.73;;;;;;;;;;5075178;28;20043;-77
2022/06/26 00:58:50;;;;;;;16.98;14.93;;;;;;;;;;5078917;28;20047;-78
2022/06/26 01:01:16;;;;;;;16.67;14.98;;;;;;;;;;5083260;28;20058;-77
2022/06/26 01:03:43;;;;;;;15.52;13.02;;;;;;;;;;5054584;28;20040;-77
2022/06/26 01:06:09;;;;;;;16.33;14.50;;;;;;;;;;5057776;28;20063;-77
2022/06/26 01:08:36;;;;;;;17.25;14.07;;;;;;;;;;5079561;28;20094;-77
2022/06/26 01:11:17;;;;;;;16.90;14.40;;;;;;;;;;5082352;28;20070;-77
2022/06/26 01:13:44;;;;;;;17.38;15.55;;;;;;;;;;5055770;28;20086;-77
2022/06/26 01:16:10;;;;;;;18.70;15.45;;;;;;;;;;5081794;28;20052;-77
2022/06/26 01:18:37;;;;;;;17.17;15.00;;;;;;;;;;5062821;28;20454;-77
2022/06/26 01:21:03;;;;;;;19.10;16.75;;;;;;;;;;5057423;28;20037;-77
2022/06/26 01:23:29;;;;;;;26.00;19.38;;;;;;;;;;5054287;28;20137;-75
2022/06/26 01:25:55;;;;;;;24.70;20.95;;;;;;;;;;5083192;28;20068;-76
2022/06/26 01:28:21;;;;;;;25.50;21.95;;;;;;;;;;5078643;28;20048;-76
2022/06/26 01:30:48;;;;;;;26.67;23.45;;;;;;;;;;5074384;28;20040;-76
2022/06/26 01:33:14;;;;;;;26.38;21.55;;;;;;;;;;5084807;28;20702;-76
2022/06/26 01:35:40;;;;;;;24.70;22.10;;;;;;;;;;5073567;28;20036;-76
2022/06/26 01:38:10;;;;;;;23.77;20.98;;;;;;;;;;5078956;28;20487;-77
2022/06/26 01:40:43;;;;;;;22.80;20.13;;;;;;;;;;5082663;28;20040;-77
2022/06/26 01:43:09;;;;;;;23.10;19.90;;;;;;;;;;5055614;28;20071;-77
2022/06/26 01:45:42;;;;;;;22.33;19.88;;;;;;;;;;5069052;28;20123;-77
2022/06/26 01:48:09;;;;;;;20.45;18.45;;;;;;;;;;5088718;28;20048;-77
2022/06/26 01:50:35;;;;;;;21.80;19.40;;;;;;;;;;5056456;28;20041;-77
2022/06/26 01:53:01;;;;;;;22.58;19.67;;;;;;;;;;5067598;28;20058;-77
2022/06/26 01:55:27;;;;;;;21.70;19.40;;;;;;;;;;5074445;28;20125;-77
2022/06/26 01:57:54;;;;;;;20.67;18.25;;;;;;;;;;5077533;28;20039;-77
2022/06/26 02:00:20;;;;;;;18.98;16.98;;;;;;;;;;5082281;28;20070;-77
2022/06/26 02:02:47;;;;;;;22.25;19.98;;;;;;;;;;5055040;28;20056;-77
2022/06/26 02:05:13;;;;;;;21.25;18.40;;;;;;;;;;5082530;28;20032;-77
2022/06/26 02:07:39;;;;;;;19.25;17.17;;;;;;;;;;5060503;28;20052;-77
2022/06/26 02:15:35;;;;;;;19.85;17.75;;;;;;;;;;5077237;28;20040;-77
2022/06/26 02:18:01;;;;;;;18.55;16.65;;;;;;;;;;5050775;28;20093;-77
2022/06/26 02:20:28;;;;;;;21.88;16.85;;;;;;;;;;5084000;28;20047;-77
2022/06/26 02:23:14;;;;;;;17.38;13.82;;;;;;;;;;5056684;28;20368;-77
2022/06/26 02:25:40;;;;;;;13.82;12.32;;;;;;;;;;5058396;28;20036;-77
2022/06/26 02:28:06;;;;;;;14.55;12.57;;;;;;;;;;5064386;28;20032;-78
2022/06/26 02:30:33;;;;;;;17.63;15.40;;;;;;;;;;5076278;28;20828;-77
2022/06/26 02:32:59;;;;;;;18.50;15.60;;;;;;;;;;5079760;28;20093;-77
2022/06/26 02:35:26;;;;;;;20.40;14.60;;;;;;;;;;5075731;28;20058;-77
2022/06/26 02:37:52;;;;;;;20.70;17.60;;;;;;;;;;5053591;28;20488;-76
2022/06/26 02:40:20;;;;;;;18.75;16.50;;;;;;;;;;5083656;28;20279;-78
2022/06/26 02:42:47;;;;;;;22.45;18.63;;;;;;;;;;5067811;28;20071;-79
2022/06/26 02:45:13;;;;;;;21.08;18.13;;;;;;;;;;5051970;28;20047;-77
2022/06/26 02:47:40;;;;;;;25.80;21.20;;;;;;;;;;5052928;28;20373;-77
2022/06/26 02:50:07;;;;;;;25.02;20.98;;;;;;;;;;5069287;28;20041;-78
2022/06/26 02:52:33;;;;;;;30.23;25.33;;;;;;;;;;5068406;28;20040;-78
2022/06/26 02:54:59;;;;;;;26.15;23.52;;;;;;;;;;5052399;28;20043;-76
2022/06/26 02:57:25;;;;;;;27.85;23.45;;;;;;;;;;5066774;28;20080;-77
2022/06/26 02:59:51;;;;;;;25.60;22.30;;;;;;;;;;5071629;28;20400;-76
2022/06/26 03:02:18;;;;;;;26.13;22.90;;;;;;;;;;5072608;28;20131;-77
2022/06/26 03:04:45;;;;;;;24.35;21.90;;;;;;;;;;5062372;28;20509;-76
2022/06/26 03:07:11;;;;;;;22.95;19.88;;;;;;;;;;5069276;28;20476;-76
2022/06/26 03:09:46;;;;;;;20.88;18.65;;;;;;;;;;5051950;28;20071;-77
2022/06/26 03:12:13;;;;;;;18.95;16.70;;;;;;;;;;5069039;28;20048;-76
2022/06/26 03:14:39;;;;;;;17.48;15.38;;;;;;;;;;5062722;28;20040;-76
2022/06/26 03:17:06;;;;;;;20.20;17.92;;;;;;;;;;5072074;28;20071;-76
2022/06/26 03:19:32;;;;;;;16.98;14.45;;;;;;;;;;5069236;28;20036;-76
2022/06/26 03:21:58;;;;;;;16.83;14.43;;;;;;;;;;5057979;28;20032;-76
2022/06/26 03:24:24;;;;;;;18.00;13.70;;;;;;;;;;5062237;28;20473;-76
2022/06/26 03:26:50;;;;;;;14.43;12.90;;;;;;;;;;5052713;28;20120;-76
2022/06/26 03:29:17;;;;;;;13.32;11.93;;;;;;;;;;5054416;28;20048;-76
2022/06/26 03:31:43;;;;;;;15.13;12.13;;;;;;;;;;5066984;28;20064;-77
2022/06/26 03:34:09;;;;;;;12.75;10.80;;;;;;;;;;5061656;28;20127;-77
2022/06/26 03:36:35;;;;;;;12.02;10.57;;;;;;;;;;5058768;28;20048;-77
2022/06/26 03:39:01;;;;;;;11.88;9.52;;;;;;;;;;5068856;28;20050;-77
2022/06/26 03:41:28;;;;;;;11.55;9.93;;;;;;;;;;5083929;28;20435;-77
2022/06/26 03:43:54;;;;;;;11.35;9.80;;;;;;;;;;5061233;28;20503;-77
2022/06/26 03:46:20;;;;;;;11.32;8.77;;;;;;;;;;5088517;28;20134;-77
2022/06/26 03:48:46;;;;;;;10.32;8.68;;;;;;;;;;5088602;28;20118;-76
2022/06/26 03:51:13;;;;;;;12.35;8.98;;;;;;;;;;5069409;28;20047;-77
2022/06/26 03:53:39;;;;;;;12.32;8.80;;;;;;;;;;5056359;28;20455;-77
2022/06/26 03:56:05;;;;;;;11.27;8.77;;;;;;;;;;5056795;28;20399;-78
2022/06/26 03:58:32;;;;;;;10.93;8.75;;;;;;;;;;5056945;28;20513;-77
2022/06/26 04:00:58;;;;;;;11.77;9.02;;;;;;;;;;5056622;28;20094;-78
2022/06/26 04:03:24;;;;;;;12.40;8.20;;;;;;;;;;5056773;28;20037;-77
2022/06/26 04:05:51;;;;;;;11.27;8.25;;;;;;;;;;5084231;28;20044;-77
2022/06/26 04:08:17;;;;;;;9.07;6.75;;;;;;;;;;5060601;28;20036;-77
2022/06/26 04:10:44;;;;;;;9.70;7.93;;;;;;;;;;5058339;28;20043;-77
2022/06/26 04:13:11;;;;;;;10.40;7.03;;;;;;;;;;5068609;28;20040;-77
2022/06/26 04:15:38;;;;;;;9.30;7.00;;;;;;;;;;5055524;28;20045;-77
2022/06/26 04:18:04;;;;;;;9.07;7.18;;;;;;;;;;5055439;28;20048;-77
2022/06/26 04:20:30;;;;;;;8.98;7.20;;;;;;;;;;5055536;28;20045;-77
2022/06/26 04:23:01;;;;;;;9.77;6.38;;;;;;;;;;5072496;28;20041;-76
2022/06/26 04:25:28;;;;;;;9.02;6.10;;;;;;;;;;5055962;28;20576;-78
2022/06/26 04:27:54;;;;;;;9.55;6.35;;;;;;;;;;5055605;28;20418;-76
2022/06/26 04:30:21;;;;;;;9.13;6.03;;;;;;;;;;5074056;28;20585;-77
2022/06/26 04:32:53;;;;;;;8.00;5.22;;;;;;;;;;5092082;28;20126;-78
2022/06/26 04:35:19;;;;;;;8.85;5.70;;;;;;;;;;5063670;28;20514;-77
2022/06/26 04:37:46;;;;;;;8.30;5.68;;;;;;;;;;5069436;28;20524;-77
2022/06/26 04:40:13;;;;;;;8.07;5.70;;;;;;;;;;5058339;28;20044;-77
2022/06/26 04:42:40;;;;;;;9.38;6.05;;;;;;;;;;5074724;28;20090;-77
2022/06/26 04:45:06;;;;;;;7.95;5.35;;;;;;;;;;5074321;28;20131;-77
2022/06/26 04:47:33;;;;;;;8.38;5.45;;;;;;;;;;5074767;28;20040;-77
2022/06/26 04:49:59;;;;;;;8.18;5.60;;;;;;;;;;5074544;28;20039;-77
2022/06/26 04:52:25;;;;;;;8.43;5.82;;;;;;;;;;5074024;28;20103;-77
2022/06/26 04:54:52;;;;;;;8.45;5.72;;;;;;;;;;5064307;28;20412;-77
2022/06/26 04:57:18;;;;;;;8.27;5.78;;;;;;;;;;5068155;28;20040;-77
2022/06/26 04:59:44;;;;;;;8.43;6.07;;;;;;;;;;5057655;28;20123;-77
2022/06/26 05:02:11;;;;;;;9.65;5.32;;;;;;;;;;5086171;28;20028;-77
2022/06/26 05:04:38;;;;;;;7.60;5.22;;;;;;;;;;5058034;28;20058;-77
2022/06/26 05:07:04;;;;;;;8.57;5.15;;;;;;;;;;5077041;28;20516;-77
2022/06/26 05:09:31;;;;;;;8.75;5.10;;;;;;;;;;5070407;28;20040;-77
2022/06/26 05:11:57;;;;;;;8.88;5.80;;;;;;;;;;5085002;28;20321;-77
2022/06/26 05:14:24;;;;;;;8.32;5.80;;;;;;;;;;5053301;28;20377;-77
2022/06/26 05:16:51;;;;;;;8.32;5.80;;;;;;;;;;5082896;28;20097;-78
2022/06/26 05:19:17;;;;;;;8.30;5.88;;;;;;;;;;5072930;28;20040;-78
2022/06/26 05:21:44;;;;;;;7.97;5.65;;;;;;;;;;5057755;28;20036;-78
2022/06/26 05:24:13;;;;;;;11.70;6.32;;;;;;;;;;5073554;28;20032;-78
2022/06/26 05:26:39;;;;;;;8.63;6.00;;;;;;;;;;5072878;28;20088;-77
2022/06/26 05:29:06;;;;;;;9.40;6.18;;;;;;;;;;5056583;28;20045;-77
2022/06/26 05:31:32;;;;;;;7.85;5.55;;;;;;;;;;5059722;28;20046;-77
2022/06/26 05:33:58;;;;;;;9.40;6.30;;;;;;;;;;5080672;28;20044;-78
2022/06/26 05:36:24;;;;;;;9.13;6.80;;;;;;;;;;5064555;28;20460;-77
2022/06/26 05:38:50;;;;;;;9.07;6.47;;;;;;;;;;5056365;28;20037;-77
2022/06/26 05:41:17;;;;;;;9.20;6.32;;;;;;;;;;5068763;28;20036;-78
2022/06/26 05:43:44;;;;;;;8.98;6.50;;;;;;;;;;5060048;28;20036;-78
2022/06/26 05:46:11;;;;;;;9.57;6.47;;;;;;;;;;5077301;28;20052;-78
2022/06/26 05:48:37;;;;;;;9.82;7.25;;;;;;;;;;5085047;28;20067;-77
2022/06/26 05:51:03;;;;;;;10.02;7.30;;;;;;;;;;5052860;28;20043;-79
2022/06/26 05:53:30;;;;;;;10.00;7.38;;;;;;;;;;5052139;28;20040;-78
2022/06/26 05:55:56;;;;;;;10.52;8.20;;;;;;;;;;5079257;28;20063;-78
2022/06/26 05:58:22;;;;;;;11.15;8.23;;;;;;;;;;5073252;28;20055;-78
2022/06/26 06:00:48;;;;;;;10.50;7.90;;;;;;;;;;5059611;28;20040;-79
2022/06/26 06:03:14;;;;;;;11.88;8.50;;;;;;;;;;5071570;28;20106;-78
2022/06/26 06:05:40;;;;;;;10.93;8.63;;;;;;;;;;5061792;28;20479;-77
2022/06/26 06:08:06;;;;;;;11.48;9.10;;;;;;;;;;5054507;28;20036;-78
2022/06/26 06:10:32;;;;;;;11.70;9.77;;;;;;;;;;5053268;28;20094;-79
2022/06/26 06:12:59;;;;;;;11.63;8.65;;;;;;;;;;5057064;28;20439;-78
2022/06/26 06:15:25;;;;;;;11.13;8.45;;;;;;;;;;5060831;28;20075;-77
2022/06/26 06:17:51;;;;;;;13.10;9.50;;;;;;;;;;5051241;28;20048;-77
2022/06/26 06:20:19;;;;;;;13.32;10.65;;;;;;;;;;5068029;28;20061;-78
2022/06/26 06:22:53;;;;;;;14.38;10.82;;;;;;;;;;5056540;28;20401;-78
2022/06/26 06:25:19;;;;;;;15.00;12.48;;;;;;;;;;5071322;28;20521;-78
2022/06/26 06:27:46;;;;;;;15.18;11.75;;;;;;;;;;5057021;28;20044;-78
2022/06/26 06:30:13;;;;;;;13.23;11.10;;;;;;;;;;5069176;28;20040;-77
2022/06/26 06:32:40;;;;;;;16.50;12.45;;;;;;;;;;5082561;28;20103;-77
2022/06/26 06:35:07;;;;;;;17.60;13.75;;;;;;;;;;5060831;28;20051;-77
2022/06/26 06:37:33;;;;;;;19.23;15.85;;;;;;;;;;5057323;28;20052;-80
2022/06/26 06:40:00;;;;;;;18.33;14.45;;;;;;;;;;5084106;28;20083;-77
2022/06/26 06:42:26;;;;;;;21.05;16.63;;;;;;;;;;5056438;28;20123;-77
2022/06/26 06:44:52;;;;;;;20.17;15.60;;;;;;;;;;5076993;28;20032;-77
2022/06/26 06:47:18;;;;;;;21.48;17.23;;;;;;;;;;5088237;28;20060;-78
2022/06/26 06:49:44;;;;;;;21.38;17.27;;;;;;;;;;5054575;28;20075;-79
2022/06/26 06:52:11;;;;;;;23.30;17.50;;;;;;;;;;5056051;28;20266;-79
2022/06/26 06:54:38;;;;;;;23.15;17.83;;;;;;;;;;5088214;28;20035;-78
2022/06/26 06:57:04;;;;;;;22.00;18.08;;;;;;;;;;5058937;28;20037;-79
2022/06/26 06:59:30;;;;;;;22.65;18.40;;;;;;;;;;5068255;28;20041;-79
2022/06/26 07:01:56;;;;;;;23.27;18.35;;;;;;;;;;5071502;28;20044;-79
2022/06/26 07:04:23;;;;;;;20.90;17.50;;;;;;;;;;5063929;28;20548;-79
2022/06/26 07:06:49;;;;;;;21.15;17.55;;;;;;;;;;5068358;28;20270;-79
2022/06/26 07:09:16;;;;;;;24.25;18.10;;;;;;;;;;5051802;28;20121;-79
2022/06/26 07:11:42;;;;;;;24.05;18.50;;;;;;;;;;5088012;28;20521;-79
2022/06/26 07:14:09;;;;;;;23.00;18.40;;;;;;;;;;5067692;28;20074;-79
2022/06/26 07:16:38;;;;;;;24.05;19.40;;;;;;;;;;5057755;28;20036;-79
2022/06/26 07:19:04;;;;;;;22.83;19.75;;;;;;;;;;5055795;28;20516;-80
2022/06/26 07:21:30;;;;;;;24.10;19.75;;;;;;;;;;5068618;28;20131;-79
2022/06/26 07:23:57;;;;;;;24.08;19.85;;;;;;;;;;5057745;28;20682;-79
2022/06/26 07:26:23;;;;;;;25.42;20.67;;;;;;;;;;5061791;28;20068;-78
2022/06/26 07:28:50;;;;;;;26.15;22.48;;;;;;;;;;5065294;28;20503;-77
2022/06/26 07:31:16;;;;;;;24.23;20.73;;;;;;;;;;5057947;28;20106;-79
2022/06/26 07:36:27;;;;;;;24.67;20.83;;;;;;;;;;5073680;28;20048;-79
2022/06/26 07:38:54;;;;;;;26.42;20.88;;;;;;;;;;5062548;28;20223;-80
2022/06/26 07:41:21;;;;;;;28.48;22.50;;;;;;;;;;5065595;28;20051;-79
2022/06/26 07:43:47;;;;;;;27.17;22.15;;;;;;;;;;5063016;28;20040;-79
2022/06/26 07:46:34;;;;;;;21.65;19.35;;;;;;;;;;5081852;28;20033;-79
2022/06/26 07:49:01;;;;;;;24.55;21.50;;;;;;;;;;5061521;28;20561;-79
2022/06/26 07:51:27;;;;;;;24.13;20.55;;;;;;;;;;5055692;28;20040;-80
2022/06/26 07:53:54;;;;;;;24.42;20.92;;;;;;;;;;5056586;28;20040;-79
2022/06/26 07:56:20;;;;;;;23.67;21.05;;;;;;;;;;5056663;28;20040;-81
2022/06/26 07:58:46;;;;;;;24.73;21.60;;;;;;;;;;5056381;28;20641;-79
2022/06/26 08:01:13;;;;;;;22.85;20.35;;;;;;;;;;5078845;28;20394;-76
2022/06/26 08:03:41;;;;;;;23.38;20.52;;;;;;;;;;5076576;28;20050;-80
2022/06/26 08:06:07;;;;;;;21.10;18.92;;;;;;;;;;5093291;28;20048;-80
2022/06/26 08:08:34;;;;;;;25.00;19.77;;;;;;;;;;5076303;28;20483;-80
2022/06/26 08:11:00;;;;;;;22.83;18.90;;;;;;;;;;5087111;28;20047;-80
2022/06/26 08:13:26;;;;;;;21.55;19.25;;;;;;;;;;5083035;28;20044;-82
2022/06/26 08:15:52;;;;;;;18.70;16.70;;;;;;;;;;5079723;28;20076;-81
2022/06/26 08:18:18;;;;;;;20.02;16.83;;;;;;;;;;5060618;28;20043;-81
2022/06/26 08:20:45;;;;;;;20.05;16.90;;;;;;;;;;5090881;28;20039;-80
2022/06/26 08:23:11;;;;;;;18.20;15.68;;;;;;;;;;5055676;28;20051;-81
2022/06/26 08:25:37;;;;;;;17.15;15.23;;;;;;;;;;5055818;28;20032;-80
2022/06/26 08:28:03;;;;;;;19.50;16.10;;;;;;;;;;5060903;28;20032;-81
2022/06/26 08:30:29;;;;;;;19.30;15.93;;;;;;;;;;5062657;28;20128;-80
2022/06/26 08:32:58;;;;;;;23.02;15.48;;;;;;;;;;5055394;28;20041;-82
2022/06/26 08:35:25;;;;;;;16.30;13.25;;;;;;;;;;5055618;28;20044;-81
2022/06/26 08:37:51;;;;;;;14.20;12.60;;;;;;;;;;5070806;28;20052;-80
2022/06/26 08:40:17;;;;;;;15.98;14.27;;;;;;;;;;5091617;28;20089;-80
2022/06/26 08:42:53;;;;;;;15.40;13.43;;;;;;;;;;5092418;28;20526;-80
2022/06/26 08:45:23;;;;;;;14.15;11.18;;;;;;;;;;5062112;28;20071;-80
2022/06/26 08:47:50;;;;;;;14.07;10.63;;;;;;;;;;5071555;28;20037;-80
2022/06/26 08:50:20;;;;;;;12.52;10.52;;;;;;;;;;5055474;28;20062;-82
2022/06/26 08:52:46;;;;;;;13.20;10.95;;;;;;;;;;5055715;28;20032;-81
2022/06/26 08:55:13;;;;;;;11.40;10.20;;;;;;;;;;5073243;28;20491;-79
2022/06/26 08:57:39;;;;;;;13.55;9.63;;;;;;;;;;5069699;28;20597;-82
2022/06/26 09:00:06;;;;;;;9.82;8.30;;;;;;;;;;5086569;28;20049;-79
2022/06/26 09:02:32;;;;;;;11.65;8.02;;;;;;;;;;5071284;28;20051;-82
2022/06/26 09:04:59;;;;;;;11.18;8.55;;;;;;;;;;5060588;28;20123;-81
2022/06/26 09:07:25;;;;;;;9.15;8.13;;;;;;;;;;5054989;28;20522;-80
2022/06/26 09:09:51;;;;;;;10.10;8.18;;;;;;;;;;5071479;28;20126;-82
2022/06/26 09:12:17;;;;;;;9.30;7.50;;;;;;;;;;5067016;28;20123;-83
2022/06/26 09:14:44;;;;;;;7.82;5.68;;;;;;;;;;5084662;28;20039;-82
2022/06/26 09:17:10;;;;;;;8.05;4.70;;;;;;;;;;5078467;28;20098;-82
2022/06/26 09:19:41;;;;;;;9.27;5.30;;;;;;;;;;5071021;28;20366;-82
2022/06/26 09:22:11;;;;;;;8.70;5.35;;;;;;;;;;5087225;28;20062;-80
2022/06/26 09:24:38;;;;;;;9.90;5.18;;;;;;;;;;5066035;28;20414;-81
2022/06/26 09:27:06;;;;;;;14.73;5.97;;;;;;;;;;5068343;28;20042;-81
2022/06/26 09:29:35;;;;;;;8.35;5.45;;;;;;;;;;5091782;28;20039;-79
2022/06/26 09:32:12;;;;;;;11.45;5.60;;;;;;;;;;5073508;28;20086;-81
2022/06/26 09:34:39;;;;;;;6.72;4.50;;;;;;;;;;5069687;28;20100;-79
2022/06/26 09:37:06;;;;;;;7.30;4.50;;;;;;;;;;5081415;28;20051;-78
2022/06/26 09:39:34;;;;;;;7.82;5.85;;;;;;;;;;5083279;28;20044;-79
2022/06/26 09:42:19;;;;;;;11.30;6.18;;;;;;;;;;5076132;28;20448;-79
2022/06/26 09:44:52;;;;;;;6.60;4.75;;;;;;;;;;5071179;28;20032;-79
2022/06/26 09:47:21;;;;;;;6.80;4.95;;;;;;;;;;5065972;28;20044;-79
2022/06/26 09:49:47;;;;;;;7.18;4.95;;;;;;;;;;5077570;28;20453;-80
2022/06/26 09:52:14;;;;;;;6.65;5.30;;;;;;;;;;5087213;28;20036;-78
2022/06/26 09:54:40;;;;;;;8.52;6.07;;;;;;;;;;5089472;28;20044;-79
2022/06/26 09:57:07;;;;;;;8.60;5.60;;;;;;;;;;5059997;28;20111;-79
2022/06/26 09:59:35;;;;;;;7.07;5.82;;;;;;;;;;5075894;28;20040;-79
2022/06/26 10:07:31;;;;;;;7.28;4.53;;;;;;;;;;5078554;28;20557;-79
2022/06/26 10:09:58;;;;;;;6.65;4.72;;;;;;;;;;5057906;28;20148;-79
2022/06/26 10:12:24;;;;;;;8.93;4.68;;;;;;;;;;5078829;28;20035;-78
2022/06/26 10:14:53;;;;;;;6.88;4.82;;;;;;;;;;5061551;28;20043;-79
2022/06/26 10:17:28;;;;;;;7.05;4.80;;;;;;;;;;5073731;28;20576;-79
2022/06/26 10:20:09;;;;;;;7.85;4.95;;;;;;;;;;5077032;28;20031;-78
2022/06/26 10:22:42;;;;;;;6.25;4.15;;;;;;;;;;5075038;28;20514;-79
2022/06/26 10:25:09;;;;;;;5.55;3.67;;;;;;;;;;5053920;28;20062;-79
2022/06/26 10:27:37;;;;;;;5.63;3.72;;;;;;;;;;5072605;28;20047;-76
2022/06/26 10:30:15;;;;;;;7.35;4.60;;;;;;;;;;5076024;28;20251;-76
2022/06/26 10:32:41;;;;;;;7.63;4.25;;;;;;;;;;5090892;28;20503;-77
2022/06/26 10:35:08;;;;;;;6.30;4.53;;;;;;;;;;5061298;28;20044;-76
2022/06/26 10:37:45;;;;;;;6.65;4.22;;;;;;;;;;5073909;28;20056;-77
2022/06/26 10:42:52;;;;;;;7.78;5.40;;;;;;;;;;5077306;28;20568;-76
2022/06/26 10:43:01;;;;;;;10.88;5.50;;;;;;;;;;5076017;28;20109;-77
2022/06/26 10:45:32;;;;;;;7.47;4.80;;;;;;;;;;5059610;28;20075;-77
2022/06/26 10:48:18;;;;;;;6.75;4.65;;;;;;;;;;5060571;28;20586;-77
2022/06/26 10:50:45;;;;;;;6.05;5.07;;;;;;;;;;5075073;28;20041;-78
2022/06/26 10:53:12;;;;;;;7.10;4.60;;;;;;;;;;5085257;28;20058;-77
2022/06/26 10:55:38;;;;;;;6.07;4.30;;;;;;;;;;5083857;28;20277;-77
2022/06/26 10:58:04;;;;;;;5.60;4.32;;;;;;;;;;5083503;28;20059;-78
2022/06/26 11:00:31;;;;;;;6.65;4.47;;;;;;;;;;5084699;28;20617;-77
2022/06/26 11:02:57;;;;;;;6.80;5.10;;;;;;;;;;5074645;28;20534;-77
2022/06/26 11:05:23;;;;;;;6.30;4.30;;;;;;;;;;5081622;28;20122;-79
2022/06/26 11:07:55;;;;;;;5.68;4.22;;;;;;;;;;5066866;28;20090;-77
2022/06/26 11:10:22;;;;;;;7.05;4.50;;;;;;;;;;5059529;28;20044;-79
2022/06/26 11:12:49;;;;;;;5.55;4.00;;;;;;;;;;5057260;28;20032;-79
2022/06/26 11:15:34;;;;;;;7.10;4.05;;;;;;;;;;5083268;28;20043;-78
2022/06/26 11:18:02;;;;;;;6.15;4.22;;;;;;;;;;5057352;28;20126;-78
2022/06/26 11:20:51;;;;;;;5.65;4.10;;;;;;;;;;5058919;28;20147;-78
2022/06/26 11:23:25;;;;;;;6.10;4.55;;;;;;;;;;5066476;28;20040;-77
2022/06/26 11:25:58;;;;;;;5.85;3.90;;;;;;;;;;5050073;28;20050;-77
2022/06/26 11:28:29;;;;;;;7.43;4.70;;;;;;;;;;5078746;28;20087;-75
2022/06/26 11:30:55;;;;;;;9.05;5.10;;;;;;;;;;5070312;28;20047;-75
2022/06/26 11:33:23;;;;;;;7.65;5.25;;;;;;;;;;5082588;28;20072;-76
2022/06/26 11:35:50;;;;;;;7.20;4.82;;;;;;;;;;5075009;28;20114;-76
2022/06/26 11:38:18;;;;;;;6.38;4.68;;;;;;;;;;5074760;28;20041;-77
2022/06/26 11:40:45;;;;;;;7.38;4.47;;;;;;;;;;5066177;28;20071;-76
2022/06/26 11:43:12;;;;;;;7.45;4.35;;;;;;;;;;5082859;28;20457;-76
2022/06/26 11:45:40;;;;;;;8.75;5.00;;;;;;;;;;5057856;28;20059;-77
2022/06/26 11:48:16;;;;;;;7.78;4.50;;;;;;;;;;5074354;28;20044;-77
2022/06/26 11:50:44;;;;;;;6.20;4.40;;;;;;;;;;5079883;28;20052;-76
2022/06/26 11:53:10;;;;;;;8.63;4.68;;;;;;;;;;5059907;28;20047;-77
2022/06/26 11:55:45;;;;;;;5.55;4.05;;;;;;;;;;5081045;28;20760;-76
2022/06/26 11:58:11;;;;;;;7.22;4.72;;;;;;;;;;5074844;28;20550;-77
2022/06/26 12:00:37;;;;;;;10.27;4.60;;;;;;;;;;5079301;28;20032;-77
2022/06/26 12:03:04;;;;;;;7.95;4.10;;;;;;;;;;5086643;28;20361;-77
2022/06/26 12:05:30;;;;;;;6.55;3.95;;;;;;;;;;5076909;28;20037;-76
2022/06/26 12:07:57;;;;;;;7.15;4.05;;;;;;;;;;5078319;28;20119;-76
2022/06/26 12:10:34;;;;;;;12.65;5.15;;;;;;;;;;5059536;28;20035;-75
2022/06/26 12:13:00;;;;;;;18.30;5.43;;;;;;;;;;5076909;28;20479;-76
2022/06/26 12:15:29;;;;;;;8.23;3.95;;;;;;;;;;5080753;28;20036;-76
2022/06/26 12:17:57;;;;;;;6.07;3.67;;;;;;;;;;5062951;28;20047;-76
2022/06/26 12:20:23;;;;;;;8.50;3.85;;;;;;;;;;5078704;28;20144;-77
2022/06/26 12:22:51;;;;;;;6.55;3.55;;;;;;;;;;5079949;28;20124;-76
2022/06/26 12:25:27;;;;;;;7.03;4.15;;;;;;;;;;5071720;28;20060;-76
2022/06/26 12:27:53;;;;;;;7.53;3.72;;;;;;;;;;5082651;28;20063;-76
2022/06/26 12:30:21;;;;;;;6.28;3.60;;;;;;;;;;5069905;28;20036;-76
2022/06/26 12:32:47;;;;;;;6.80;3.95;;;;;;;;;;5070005;28;20036;-76
2022/06/26 12:35:13;;;;;;;5.43;3.53;;;;;;;;;;5081217;28;20400;-77
2022/06/26 12:37:39;;;;;;;8.52;3.97;;;;;;;;;;5074058;28;20067;-77
2022/06/26 12:40:06;;;;;;;6.00;3.45;;;;;;;;;;5063496;28;20040;-76
2022/06/26 12:42:32;;;;;;;8.05;3.50;;;;;;;;;;5078361;28;20036;-77
2022/06/26 12:44:59;;;;;;;4.90;3.30;;;;;;;;;;5078610;28;20605;-78
2022/06/26 12:47:25;;;;;;;6.53;3.58;;;;;;;;;;5063280;28;20048;-79
2022/06/26 12:49:51;;;;;;;5.20;3.28;;;;;;;;;;5061096;28;20040;-78
2022/06/26 12:52:17;;;;;;;8.02;3.53;;;;;;;;;;5062978;28;20445;-78
2022/06/26 12:54:44;;;;;;;5.95;2.90;;;;;;;;;;5060716;28;20499;-77
2022/06/26 12:57:10;;;;;;;5.50;3.10;;;;;;;;;;5075503;28;20080;-78
2022/06/26 12:59:36;;;;;;;5.63;2.95;;;;;;;;;;5071196;28;20040;-75
2022/06/26 13:02:02;;;;;;;6.97;3.22;;;;;;;;;;5081967;28;20039;-77
2022/06/26 13:04:29;;;;;;;6.50;3.10;;;;;;;;;;5082218;28;20043;-78
2022/06/26 13:06:55;;;;;;;5.40;3.08;;;;;;;;;;5068504;28;20157;-78
2022/06/26 13:09:21;;;;;;;6.05;3.10;;;;;;;;;;5080824;28;20036;-77
2022/06/26 13:11:47;;;;;;;5.13;3.03;;;;;;;;;;5082798;28;20051;-77
2022/06/26 13:14:13;;;;;;;4.40;2.88;;;;;;;;;;5069304;28;20076;-78
2022/06/26 13:16:40;;;;;;;6.30;2.90;;;;;;;;;;5065010;28;20047;-78
2022/06/26 13:19:07;;;;;;;5.97;3.38;;;;;;;;;;5072455;28;20541;-77
2022/06/26 13:21:33;;;;;;;6.03;3.10;;;;;;;;;;5070288;28;20037;-77
2022/06/26 13:24:00;;;;;;;4.50;2.88;;;;;;;;;;5058263;28;20087;-78
2022/06/26 13:26:26;;;;;;;6.03;3.28;;;;;;;;;;5081867;28;20040;-77
2022/06/26 13:28:52;;;;;;;5.93;3.10;;;;;;;;;;5073105;28;20452;-78
2022/06/26 13:31:25;;;;;;;5.20;3.05;;;;;;;;;;5089529;28;20059;-83
2022/06/26 13:33:52;;;;;;;5.78;3.15;;;;;;;;;;5065486;28;20044;-80
2022/06/26 13:36:18;;;;;;;5.80;3.47;;;;;;;;;;5061717;28;20087;-80
2022/06/26 13:39:38;;;;;;;9.55;4.00;;;;;;;;;;5158165;27;20102;-87
